sensor_id;sensor_type;location;lat;lon;timestamp;pressure;altitude;pressure_sealevel;temperature;humidity
64616;BME280;51027;42.162;24.754;2023-03-13T00:01:02;100110.03;;;5.70;54.98
64616;BME280;51027;42.162;24.754;2023-03-13T00:03:33;100109.06;;;5.78;54.75
64616;BME280;51027;42.162;24.754;2023-03-13T00:05:59;100113.53;;;5.69;55.35
64616;BME280;51027;42.162;24.754;2023-03-13T00:08:27;100104.00;;;5.66;55.23
64616;BME280;51027;42.162;24.754;2023-03-13T00:10:53;100109.22;;;5.66;54.69
64616;BME280;51027;42.162;24.754;2023-03-13T00:13:18;100110.00;;;5.74;54.22
64616;BME280;51027;42.162;24.754;2023-03-13T00:15:44;100100.47;;;5.69;53.94
64616;BME280;51027;42.162;24.754;2023-03-13T00:18:09;100112.75;;;5.64;54.04
64616;BME280;51027;42.162;24.754;2023-03-13T00:20:35;100112.66;;;5.68;53.88
64616;BME280;51027;42.162;24.754;2023-03-13T00:23:00;100115.50;;;5.50;53.82
64616;BME280;51027;42.162;24.754;2023-03-13T00:25:26;100118.09;;;5.52;53.21
64616;BME280;51027;42.162;24.754;2023-03-13T00:27:51;100088.59;;;5.43;53.33
64616;BME280;51027;42.162;24.754;2023-03-13T00:30:17;100112.69;;;5.67;52.68
64616;BME280;51027;42.162;24.754;2023-03-13T00:32:43;100091.16;;;5.48;52.85
64616;BME280;51027;42.162;24.754;2023-03-13T00:35:11;100090.34;;;5.43;53.15
64616;BME280;51027;42.162;24.754;2023-03-13T00:37:36;100093.72;;;5.53;52.95
64616;BME280;51027;42.162;24.754;2023-03-13T00:40:03;100112.72;;;5.65;52.85
64616;BME280;51027;42.162;24.754;2023-03-13T00:42:29;100107.66;;;5.50;53.37
64616;BME280;51027;42.162;24.754;2023-03-13T00:44:54;100089.50;;;5.39;53.64
64616;BME280;51027;42.162;24.754;2023-03-13T00:47:20;100075.66;;;5.31;53.17
64616;BME280;51027;42.162;24.754;2023-03-13T00:49:45;100035.00;;;5.10;53.54
64616;BME280;51027;42.162;24.754;2023-03-13T00:52:10;100099.94;;;5.42;53.62
64616;BME280;51027;42.162;24.754;2023-03-13T00:54:36;100101.03;;;5.23;54.04
64616;BME280;51027;42.162;24.754;2023-03-13T00:57:01;100094.13;;;5.17;53.79
64616;BME280;51027;42.162;24.754;2023-03-13T00:59:27;100093.22;;;5.22;54.12
64616;BME280;51027;42.162;24.754;2023-03-13T01:01:52;100091.63;;;5.05;54.27
64616;BME280;51027;42.162;24.754;2023-03-13T01:04:18;100077.78;;;4.97;54.59
64616;BME280;51027;42.162;24.754;2023-03-13T01:06:43;100100.31;;;5.07;54.34
64616;BME280;51027;42.162;24.754;2023-03-13T01:09:11;100099.56;;;4.95;54.38
64616;BME280;51027;42.162;24.754;2023-03-13T01:11:39;100007.16;;;4.31;55.19
64616;BME280;51027;42.162;24.754;2023-03-13T01:14:08;100098.81;;;4.85;55.28
64616;BME280;51027;42.162;24.754;2023-03-13T01:16:35;100091.03;;;4.80;55.32
64616;BME280;51027;42.162;24.754;2023-03-13T01:19:08;100094.59;;;4.70;55.79
64616;BME280;51027;42.162;24.754;2023-03-13T01:21:34;100094.59;;;4.69;55.89
64616;BME280;51027;42.162;24.754;2023-03-13T01:24:00;100098.16;;;4.57;56.45
64616;BME280;51027;42.162;24.754;2023-03-13T01:26:26;100098.34;;;4.34;57.21
64616;BME280;51027;42.162;24.754;2023-03-13T01:28:52;100102.91;;;4.03;57.59
64616;BME280;51027;42.162;24.754;2023-03-13T01:31:19;100117.78;;;3.90;58.24
64616;BME280;51027;42.162;24.754;2023-03-13T01:33:46;100097.94;;;3.59;58.77
64616;BME280;51027;42.162;24.754;2023-03-13T01:36:12;100121.41;;;3.46;59.53
64616;BME280;51027;42.162;24.754;2023-03-13T01:38:38;100104.13;;;3.38;60.02
64616;BME280;51027;42.162;24.754;2023-03-13T01:41:05;100109.31;;;3.38;60.29
64616;BME280;51027;42.162;24.754;2023-03-13T01:43:34;100112.75;;;3.49;59.76
64616;BME280;51027;42.162;24.754;2023-03-13T01:48:41;100125.78;;;3.37;59.93
64616;BME280;51027;42.162;24.754;2023-03-13T01:51:15;100116.28;;;3.28;60.03
64616;BME280;51027;42.162;24.754;2023-03-13T01:53:44;100132.75;;;3.38;60.38
64616;BME280;51027;42.162;24.754;2023-03-13T01:56:17;100132.75;;;3.38;60.28
64616;BME280;51027;42.162;24.754;2023-03-13T01:58:45;100126.63;;;3.46;60.33
64616;BME280;51027;42.162;24.754;2023-03-13T02:01:11;100130.16;;;3.26;60.85
64616;BME280;51027;42.162;24.754;2023-03-13T02:03:38;100133.66;;;3.17;60.96
64616;BME280;51027;42.162;24.754;2023-03-13T02:06:05;100140.59;;;3.18;61.24
64616;BME280;51027;42.162;24.754;2023-03-13T02:08:40;100135.38;;;3.29;60.88
64616;BME280;51027;42.162;24.754;2023-03-13T02:11:15;100148.34;;;3.35;60.55
64616;BME280;51027;42.162;24.754;2023-03-13T02:13:43;100162.28;;;3.29;60.56
64616;BME280;51027;42.162;24.754;2023-03-13T02:16:09;100151.84;;;3.34;60.75
64616;BME280;51027;42.162;24.754;2023-03-13T02:18:35;100164.88;;;3.25;61.23
64616;BME280;51027;42.162;24.754;2023-03-13T02:21:10;100175.28;;;3.25;61.09
64616;BME280;51027;42.162;24.754;2023-03-13T02:23:58;100176.16;;;3.14;61.54
64616;BME280;51027;42.162;24.754;2023-03-13T02:26:26;100177.91;;;3.06;61.93
64616;BME280;51027;42.162;24.754;2023-03-13T02:28:51;100180.53;;;2.83;62.48
64616;BME280;51027;42.162;24.754;2023-03-13T02:31:17;100178.78;;;2.75;62.83
64616;BME280;51027;42.162;24.754;2023-03-13T02:33:42;100184.00;;;2.84;62.49
64616;BME280;51027;42.162;24.754;2023-03-13T02:36:10;100177.94;;;2.82;62.21
64616;BME280;51027;42.162;24.754;2023-03-13T02:38:44;100193.50;;;2.51;63.15
64616;BME280;51027;42.162;24.754;2023-03-13T02:41:12;100209.09;;;2.53;63.76
64616;BME280;51027;42.162;24.754;2023-03-13T02:43:38;100215.16;;;2.50;63.33
64616;BME280;51027;42.162;24.754;2023-03-13T02:46:15;100217.75;;;2.35;64.26
64616;BME280;51027;42.162;24.754;2023-03-13T02:48:49;100222.94;;;2.40;64.11
64616;BME280;51027;42.162;24.754;2023-03-13T02:51:37;100189.09;;;2.14;64.24
64616;BME280;51027;42.162;24.754;2023-03-13T02:54:09;100221.25;;;2.49;64.00
64616;BME280;51027;42.162;24.754;2023-03-13T02:56:38;100216.06;;;2.57;63.93
64616;BME280;51027;42.162;24.754;2023-03-13T02:59:05;100222.94;;;2.35;64.31
64616;BME280;51027;42.162;24.754;2023-03-13T03:01:32;100205.63;;;2.42;64.37
64616;BME280;51027;42.162;24.754;2023-03-13T03:03:57;100216.00;;;2.45;64.37
64616;BME280;51027;42.162;24.754;2023-03-13T03:06:23;100223.88;;;2.55;64.06
64616;BME280;51027;42.162;24.754;2023-03-13T03:08:48;100222.06;;;2.35;64.22
64616;BME280;51027;42.162;24.754;2023-03-13T03:11:15;100233.34;;;2.37;64.77
64616;BME280;51027;42.162;24.754;2023-03-13T03:13:41;100242.00;;;2.42;64.79
64616;BME280;51027;42.162;24.754;2023-03-13T03:16:07;100248.94;;;2.43;64.61
64616;BME280;51027;42.162;24.754;2023-03-13T03:18:34;100249.75;;;2.19;65.15
64616;BME280;51027;42.162;24.754;2023-03-13T03:21:00;100236.63;;;1.91;65.81
64616;BME280;51027;42.162;24.754;2023-03-13T03:23:26;100259.22;;;2.12;65.64
64616;BME280;51027;42.162;24.754;2023-03-13T03:25:51;100260.97;;;2.12;65.24
64616;BME280;51027;42.162;24.754;2023-03-13T03:28:17;100254.00;;;2.00;65.92
64616;BME280;51027;42.162;24.754;2023-03-13T03:30:42;100203.69;;;1.75;65.44
64616;BME280;51027;42.162;24.754;2023-03-13T03:33:07;100288.72;;;2.17;65.52
64616;BME280;51027;42.162;24.754;2023-03-13T03:35:33;100282.66;;;2.20;65.24
64616;BME280;51027;42.162;24.754;2023-03-13T03:38:02;100284.25;;;1.90;65.41
64616;BME280;51027;42.162;24.754;2023-03-13T03:40:28;100296.28;;;1.76;66.47
64616;BME280;51027;42.162;24.754;2023-03-13T03:42:54;100295.56;;;2.01;65.94
64616;BME280;51027;42.162;24.754;2023-03-13T03:45:19;100290.91;;;1.49;66.96
64616;BME280;51027;42.162;24.754;2023-03-13T03:47:45;100284.84;;;1.43;67.95
64616;BME280;51027;42.162;24.754;2023-03-13T03:50:11;100282.25;;;1.47;67.76
64616;BME280;51027;42.162;24.754;2023-03-13T03:52:37;100300.44;;;1.53;67.86
64616;BME280;51027;42.162;24.754;2023-03-13T03:55:03;100303.22;;;1.77;67.36
64616;BME280;51027;42.162;24.754;2023-03-13T03:57:29;100302.31;;;1.70;67.65
64616;BME280;51027;42.162;24.754;2023-03-13T03:59:54;100308.50;;;1.91;67.27
64616;BME280;51027;42.162;24.754;2023-03-13T04:02:19;100316.22;;;1.82;67.34
64616;BME280;51027;42.162;24.754;2023-03-13T04:04:45;100317.13;;;1.88;67.20
64616;BME280;51027;42.162;24.754;2023-03-13T04:07:10;100321.34;;;1.66;67.93
64616;BME280;51027;42.162;24.754;2023-03-13T04:09:35;100311.53;;;1.30;68.49
64616;BME280;51027;42.162;24.754;2023-03-13T04:12:01;100322.22;;;1.73;68.06
64616;BME280;51027;42.162;24.754;2023-03-13T04:14:26;100321.25;;;1.56;68.20
64616;BME280;51027;42.162;24.754;2023-03-13T04:16:52;100335.25;;;1.79;67.68
64616;BME280;51027;42.162;24.754;2023-03-13T04:19:17;100347.38;;;1.82;67.34
64616;BME280;51027;42.162;24.754;2023-03-13T04:21:42;100339.66;;;1.91;67.10
64616;BME280;51027;42.162;24.754;2023-03-13T04:24:08;100348.88;;;1.51;67.56
64616;BME280;51027;42.162;24.754;2023-03-13T04:26:33;100354.25;;;1.73;67.29
64616;BME280;51027;42.162;24.754;2023-03-13T04:28:59;100335.19;;;1.68;67.00
64616;BME280;51027;42.162;24.754;2023-03-13T04:31:24;100344.69;;;1.66;67.16
64616;BME280;51027;42.162;24.754;2023-03-13T04:33:49;100356.88;;;1.77;67.22
64616;BME280;51027;42.162;24.754;2023-03-13T04:36:15;100369.97;;;1.92;66.75
64616;BME280;51027;42.162;24.754;2023-03-13T04:38:40;100379.41;;;1.79;67.00
64616;BME280;51027;42.162;24.754;2023-03-13T04:41:05;100371.59;;;1.78;67.17
64616;BME280;51027;42.162;24.754;2023-03-13T04:43:31;100358.69;;;1.85;66.55
64616;BME280;51027;42.162;24.754;2023-03-13T04:45:56;100363.81;;;1.79;66.64
64616;BME280;51027;42.162;24.754;2023-03-13T04:48:22;100383.81;;;1.89;66.94
64616;BME280;51027;42.162;24.754;2023-03-13T04:50:47;100366.34;;;1.71;67.38
64616;BME280;51027;42.162;24.754;2023-03-13T04:53:14;100382.84;;;1.75;67.46
64616;BME280;51027;42.162;24.754;2023-03-13T04:55:39;100373.09;;;1.45;67.79
64616;BME280;51027;42.162;24.754;2023-03-13T04:58:05;100391.59;;;1.86;67.35
64616;BME280;51027;42.162;24.754;2023-03-13T05:00:39;100390.81;;;1.99;66.70
64616;BME280;51027;42.162;24.754;2023-03-13T05:03:05;100388.22;;;2.01;66.30
64616;BME280;51027;42.162;24.754;2023-03-13T05:05:32;100391.75;;;2.14;66.34
64616;BME280;51027;42.162;24.754;2023-03-13T05:07:58;100407.19;;;1.89;66.88
64616;BME280;51027;42.162;24.754;2023-03-13T05:10:24;100376.06;;;1.95;66.29
64616;BME280;51027;42.162;24.754;2023-03-13T05:12:49;100402.13;;;2.14;66.32
64616;BME280;51027;42.162;24.754;2023-03-13T05:15:14;100349.03;;;1.72;66.42
64616;BME280;51027;42.162;24.754;2023-03-13T05:17:40;100412.53;;;2.11;66.78
64616;BME280;51027;42.162;24.754;2023-03-13T05:20:06;100419.47;;;2.13;66.42
64616;BME280;51027;42.162;24.754;2023-03-13T05:22:34;100416.97;;;2.30;66.08
64616;BME280;51027;42.162;24.754;2023-03-13T05:24:59;100416.97;;;2.33;65.62
64616;BME280;51027;42.162;24.754;2023-03-13T05:27:24;100431.78;;;2.45;65.24
64616;BME280;51027;42.162;24.754;2023-03-13T05:29:50;100436.22;;;2.63;64.31
64616;BME280;51027;42.162;24.754;2023-03-13T05:32:15;100430.22;;;2.82;63.70
64616;BME280;51027;42.162;24.754;2023-03-13T05:34:41;100426.75;;;2.81;63.58
64616;BME280;51027;42.162;24.754;2023-03-13T05:37:06;100418.13;;;2.95;62.70
64616;BME280;51027;42.162;24.754;2023-03-13T05:39:31;100436.34;;;2.87;63.35
64616;BME280;51027;42.162;24.754;2023-03-13T05:41:57;100444.25;;;3.21;62.69
64616;BME280;51027;42.162;24.754;2023-03-13T05:44:22;100439.03;;;3.22;62.13
64616;BME280;51027;42.162;24.754;2023-03-13T05:46:47;100441.53;;;2.93;63.24
64616;BME280;51027;42.162;24.754;2023-03-13T05:49:13;100449.50;;;3.42;61.77
64616;BME280;51027;42.162;24.754;2023-03-13T05:51:38;100450.41;;;3.71;60.85
64616;BME280;51027;42.162;24.754;2023-03-13T05:54:04;100452.13;;;3.77;60.47
64616;BME280;51027;42.162;24.754;2023-03-13T05:56:29;100442.59;;;3.90;60.26
64616;BME280;51027;42.162;24.754;2023-03-13T05:58:54;100455.63;;;3.82;60.01
64616;BME280;51027;42.162;24.754;2023-03-13T06:01:20;100459.94;;;3.88;59.07
64616;BME280;51027;42.162;24.754;2023-03-13T06:03:45;100457.34;;;4.21;58.99
64616;BME280;51027;42.162;24.754;2023-03-13T06:06:10;100457.34;;;4.12;58.69
64616;BME280;51027;42.162;24.754;2023-03-13T06:08:36;100460.81;;;4.28;58.26
64616;BME280;51027;42.162;24.754;2023-03-13T06:11:02;100463.34;;;4.63;57.38
64616;BME280;51027;42.162;24.754;2023-03-13T06:13:28;100462.41;;;4.87;56.65
64616;BME280;51027;42.162;24.754;2023-03-13T06:15:55;100469.28;;;5.05;55.73
64616;BME280;51027;42.162;24.754;2023-03-13T06:18:21;100444.78;;;5.29;55.14
64616;BME280;51027;42.162;24.754;2023-03-13T06:20:48;100469.75;;;5.77;54.40
64616;BME280;51027;42.162;24.754;2023-03-13T06:23:13;100477.59;;;5.75;54.19
64616;BME280;51027;42.162;24.754;2023-03-13T06:25:39;100475.97;;;5.62;54.23
64616;BME280;51027;42.162;24.754;2023-03-13T06:28:04;100464.25;;;6.12;53.11
64616;BME280;51027;42.162;24.754;2023-03-13T06:30:29;100483.47;;;6.10;52.61
64616;BME280;51027;42.162;24.754;2023-03-13T06:32:55;100469.78;;;5.74;53.54
64616;BME280;51027;42.162;24.754;2023-03-13T06:35:21;100456.03;;;5.44;54.05
64616;BME280;51027;42.162;24.754;2023-03-13T06:37:47;100480.34;;;6.61;51.79
64616;BME280;51027;42.162;24.754;2023-03-13T06:40:12;100481.19;;;6.67;51.31
64616;BME280;51027;42.162;24.754;2023-03-13T06:42:38;100454.66;;;7.62;49.34
64616;BME280;51027;42.162;24.754;2023-03-13T06:45:03;100469.75;;;8.54;47.60
64616;BME280;51027;42.162;24.754;2023-03-13T06:47:30;100467.97;;;7.48;49.28
64616;BME280;51027;42.162;24.754;2023-03-13T06:49:57;100465.94;;;7.65;49.62
64616;BME280;51027;42.162;24.754;2023-03-13T06:52:22;100470.44;;;8.13;48.36
64616;BME280;51027;42.162;24.754;2023-03-13T06:54:48;100470.22;;;8.76;47.35
64616;BME280;51027;42.162;24.754;2023-03-13T06:57:13;100466.56;;;8.83;46.38
64616;BME280;51027;42.162;24.754;2023-03-13T06:59:39;100448.81;;;10.10;43.91
64616;BME280;51027;42.162;24.754;2023-03-13T07:02:05;100460.72;;;11.50;41.07
64616;BME280;51027;42.162;24.754;2023-03-13T07:04:30;100460.59;;;11.55;40.54
64616;BME280;51027;42.162;24.754;2023-03-13T07:06:56;100467.91;;;10.54;41.10
64616;BME280;51027;42.162;24.754;2023-03-13T07:09:21;100352.97;;;9.49;42.09
64616;BME280;51027;42.162;24.754;2023-03-13T07:11:47;100445.59;;;9.99;42.28
64616;BME280;51027;42.162;24.754;2023-03-13T07:14:12;100463.00;;;10.04;43.37
64616;BME280;51027;42.162;24.754;2023-03-13T07:16:38;100460.13;;;11.70;40.27
64616;BME280;51027;42.162;24.754;2023-03-13T07:19:03;100453.91;;;10.83;41.85
64616;BME280;51027;42.162;24.754;2023-03-13T07:21:29;100460.97;;;9.41;44.19
64616;BME280;51027;42.162;24.754;2023-03-13T07:23:54;100463.81;;;9.32;45.59
64616;BME280;51027;42.162;24.754;2023-03-13T07:26:20;100463.72;;;10.09;44.14
64616;BME280;51027;42.162;24.754;2023-03-13T07:28:45;100462.50;;;9.50;45.29
64616;BME280;51027;42.162;24.754;2023-03-13T07:31:20;100437.03;;;9.53;44.61
64616;BME280;51027;42.162;24.754;2023-03-13T07:33:48;100452.75;;;10.62;42.93
64616;BME280;51027;42.162;24.754;2023-03-13T07:36:15;100467.38;;;8.86;45.26
64616;BME280;51027;42.162;24.754;2023-03-13T07:38:40;100469.25;;;10.36;44.48
64616;BME280;51027;42.162;24.754;2023-03-13T07:41:10;100471.50;;;8.98;46.72
64616;BME280;51027;42.162;24.754;2023-03-13T07:43:36;100464.56;;;11.68;41.28
64616;BME280;51027;42.162;24.754;2023-03-13T07:46:06;100450.28;;;12.30;39.17
64616;BME280;51027;42.162;24.754;2023-03-13T07:48:36;100462.81;;;12.23;39.89
64616;BME280;51027;42.162;24.754;2023-03-13T07:51:04;100458.31;;;12.27;39.78
64616;BME280;51027;42.162;24.754;2023-03-13T07:53:30;100441.78;;;11.94;40.60
64616;BME280;51027;42.162;24.754;2023-03-13T07:56:02;100464.94;;;12.88;38.42
64616;BME280;51027;42.162;24.754;2023-03-13T07:58:31;100452.09;;;13.26;37.67
64616;BME280;51027;42.162;24.754;2023-03-13T08:00:57;100458.91;;;12.60;38.79
64616;BME280;51027;42.162;24.754;2023-03-13T08:03:23;100460.56;;;11.57;40.29
64616;BME280;51027;42.162;24.754;2023-03-13T08:05:59;100457.81;;;12.40;39.28
64616;BME280;51027;42.162;24.754;2023-03-13T08:08:25;100455.66;;;11.44;41.01
64616;BME280;51027;42.162;24.754;2023-03-13T08:10:51;100452.97;;;12.02;40.18
64616;BME280;51027;42.162;24.754;2023-03-13T08:13:16;100420.34;;;13.03;37.74
64616;BME280;51027;42.162;24.754;2023-03-13T08:15:42;100438.84;;;14.35;36.37
64616;BME280;51027;42.162;24.754;2023-03-13T08:18:07;100431.56;;;14.61;35.60
64616;BME280;51027;42.162;24.754;2023-03-13T08:20:33;100429.25;;;15.69;33.45
64616;BME280;51027;42.162;24.754;2023-03-13T08:22:58;100420.81;;;15.60;33.59
64616;BME280;51027;42.162;24.754;2023-03-13T08:25:24;100420.41;;;17.54;30.53
64616;BME280;51027;42.162;24.754;2023-03-13T08:27:49;100414.75;;;17.76;30.10
64616;BME280;51027;42.162;24.754;2023-03-13T08:30:15;100417.84;;;17.53;30.97
64616;BME280;51027;42.162;24.754;2023-03-13T08:32:40;100412.00;;;17.62;30.35
64616;BME280;51027;42.162;24.754;2023-03-13T08:35:06;100418.53;;;17.41;30.62
64616;BME280;51027;42.162;24.754;2023-03-13T08:37:32;100385.16;;;16.19;31.29
64616;BME280;51027;42.162;24.754;2023-03-13T08:39:57;100418.06;;;18.11;29.20
64616;BME280;51027;42.162;24.754;2023-03-13T08:42:23;100425.72;;;17.23;29.89
64616;BME280;51027;42.162;24.754;2023-03-13T08:44:48;100421.13;;;16.26;31.16
64616;BME280;51027;42.162;24.754;2023-03-13T08:47:14;100413.81;;;16.12;31.53
64616;BME280;51027;42.162;24.754;2023-03-13T08:49:40;100428.44;;;16.03;31.90
64616;BME280;51027;42.162;24.754;2023-03-13T08:52:06;100425.28;;;15.78;31.92
64616;BME280;51027;42.162;24.754;2023-03-13T08:54:32;100433.22;;;17.48;29.29
64616;BME280;51027;42.162;24.754;2023-03-13T08:56:57;100409.34;;;18.82;27.79
64616;BME280;51027;42.162;24.754;2023-03-13T08:59:24;100415.06;;;17.23;28.98
64616;BME280;51027;42.162;24.754;2023-03-13T09:01:49;100428.31;;;16.76;30.51
64616;BME280;51027;42.162;24.754;2023-03-13T09:04:15;100420.03;;;17.13;29.93
64616;BME280;51027;42.162;24.754;2023-03-13T09:06:40;100410.59;;;18.47;28.13
64616;BME280;51027;42.162;24.754;2023-03-13T09:09:06;100427.88;;;18.55;28.06
64616;BME280;51027;42.162;24.754;2023-03-13T09:11:32;100406.88;;;18.05;28.56
64616;BME280;51027;42.162;24.754;2023-03-13T09:13:58;100433.53;;;18.35;28.47
64616;BME280;51027;42.162;24.754;2023-03-13T09:16:26;100428.94;;;18.23;27.31
64616;BME280;51027;42.162;24.754;2023-03-13T09:18:52;100421.38;;;16.89;29.11
64616;BME280;51027;42.162;24.754;2023-03-13T09:21:20;100419.50;;;17.71;28.17
64616;BME280;51027;42.162;24.754;2023-03-13T09:23:46;100414.47;;;19.42;26.46
64616;BME280;51027;42.162;24.754;2023-03-13T09:26:12;100409.41;;;20.19;25.14
64616;BME280;51027;42.162;24.754;2023-03-13T09:28:38;100414.91;;;19.90;24.90
64616;BME280;51027;42.162;24.754;2023-03-13T09:33:36;100413.66;;;18.10;27.29
64616;BME280;51027;42.162;24.754;2023-03-13T09:36:02;100413.00;;;17.12;28.44
64616;BME280;51027;42.162;24.754;2023-03-13T09:38:28;100414.75;;;17.45;27.33
64616;BME280;51027;42.162;24.754;2023-03-13T09:40:54;100410.78;;;17.20;27.44
64616;BME280;51027;42.162;24.754;2023-03-13T09:46:04;100400.66;;;18.20;26.34
64616;BME280;51027;42.162;24.754;2023-03-13T09:48:31;100391.16;;;16.39;28.20
64616;BME280;51027;42.162;24.754;2023-03-13T09:53:45;100386.59;;;16.59;28.07
64616;BME280;51027;42.162;24.754;2023-03-13T09:56:21;100382.94;;;15.92;29.43
64616;BME280;51027;42.162;24.754;2023-03-13T09:58:54;100380.84;;;16.84;28.15
64616;BME280;51027;42.162;24.754;2023-03-13T10:01:26;100374.97;;;15.75;29.20
64616;BME280;51027;42.162;24.754;2023-03-13T10:04:01;100364.97;;;16.65;28.05
64616;BME280;51027;42.162;24.754;2023-03-13T10:06:33;100377.59;;;16.94;27.06
64616;BME280;51027;42.162;24.754;2023-03-13T10:08:59;100367.75;;;17.12;28.16
64616;BME280;51027;42.162;24.754;2023-03-13T10:11:37;100366.41;;;18.42;24.75
64616;BME280;51027;42.162;24.754;2023-03-13T10:14:16;100355.94;;;18.96;24.10
64616;BME280;51027;42.162;24.754;2023-03-13T10:19:17;100365.13;;;18.20;24.87
64616;BME280;51027;42.162;24.754;2023-03-13T10:21:47;100364.69;;;18.41;24.39
64616;BME280;51027;42.162;24.754;2023-03-13T10:24:57;100357.09;;;18.78;23.31
64616;BME280;51027;42.162;24.754;2023-03-13T10:27:22;100340.75;;;19.52;22.00
64616;BME280;51027;42.162;24.754;2023-03-13T10:29:47;100352.50;;;18.07;21.72
64616;BME280;51027;42.162;24.754;2023-03-13T10:32:14;100347.72;;;17.52;21.43
64616;BME280;51027;42.162;24.754;2023-03-13T10:34:55;100349.69;;;20.45;19.19
64616;BME280;51027;42.162;24.754;2023-03-13T10:39:51;100344.47;;;20.04;19.63
64616;BME280;51027;42.162;24.754;2023-03-13T10:42:24;100346.75;;;20.86;19.27
64616;BME280;51027;42.162;24.754;2023-03-13T10:44:58;100347.78;;;21.09;18.17
64616;BME280;51027;42.162;24.754;2023-03-13T10:47:24;100340.84;;;20.30;18.55
64616;BME280;51027;42.162;24.754;2023-03-13T10:49:54;100319.47;;;19.65;19.42
64616;BME280;51027;42.162;24.754;2023-03-13T10:52:41;100329.66;;;22.88;17.38
64616;BME280;51027;42.162;24.754;2023-03-13T10:55:09;100321.38;;;21.52;18.78
64616;BME280;51027;42.162;24.754;2023-03-13T10:57:36;100310.38;;;22.94;17.83
64616;BME280;51027;42.162;24.754;2023-03-13T11:00:35;100310.25;;;23.50;16.25
64616;BME280;51027;42.162;24.754;2023-03-13T11:03:04;100302.63;;;23.23;16.96
64616;BME280;51027;42.162;24.754;2023-03-13T11:05:41;100304.47;;;22.78;17.25
64616;BME280;51027;42.162;24.754;2023-03-13T11:13:39;100297.22;;;21.41;17.93
64616;BME280;51027;42.162;24.754;2023-03-13T11:16:22;100290.72;;;23.37;16.73
64616;BME280;51027;42.162;24.754;2023-03-13T11:19:07;100292.88;;;22.22;16.75
64616;BME280;51027;42.162;24.754;2023-03-13T11:30:01;100277.28;;;22.49;16.93
64616;BME280;51027;42.162;24.754;2023-03-13T11:32:47;100272.84;;;21.20;17.07
64616;BME280;51027;42.162;24.754;2023-03-13T11:37:50;100266.63;;;21.68;17.60
64616;BME280;51027;42.162;24.754;2023-03-13T11:40:26;100256.75;;;22.37;17.04
64616;BME280;51027;42.162;24.754;2023-03-13T11:43:49;100257.25;;;19.49;18.75
64616;BME280;51027;42.162;24.754;2023-03-13T11:46:42;100253.63;;;19.50;19.37
64616;BME280;51027;42.162;24.754;2023-03-13T11:49:55;100254.41;;;20.55;19.04
64616;BME280;51027;42.162;24.754;2023-03-13T12:00:23;100228.16;;;20.22;18.25
64616;BME280;51027;42.162;24.754;2023-03-13T12:02:58;100229.16;;;19.96;18.26
64616;BME280;51027;42.162;24.754;2023-03-13T12:05:57;100209.03;;;19.25;18.43
64616;BME280;51027;42.162;24.754;2023-03-13T12:08:47;100204.66;;;17.70;20.27
64616;BME280;51027;42.162;24.754;2023-03-13T12:11:32;100207.31;;;19.64;18.49
64616;BME280;51027;42.162;24.754;2023-03-13T12:16:50;100189.63;;;17.83;18.81
64616;BME280;51027;42.162;24.754;2023-03-13T12:19:26;100205.00;;;19.05;16.95
64616;BME280;51027;42.162;24.754;2023-03-13T12:21:56;100203.00;;;20.50;16.32
64616;BME280;51027;42.162;24.754;2023-03-13T12:24:35;100201.34;;;22.92;15.52
64616;BME280;51027;42.162;24.754;2023-03-13T12:27:17;100186.75;;;21.25;17.14
64616;BME280;51027;42.162;24.754;2023-03-13T12:32:31;100194.38;;;18.50;19.66
64616;BME280;51027;42.162;24.754;2023-03-13T12:34:59;100190.31;;;22.18;16.56
64616;BME280;51027;42.162;24.754;2023-03-13T12:37:45;100188.75;;;23.24;15.42
64616;BME280;51027;42.162;24.754;2023-03-13T12:40:34;100198.56;;;17.97;19.12
64616;BME280;51027;42.162;24.754;2023-03-13T12:43:23;100186.97;;;18.12;19.58
64616;BME280;51027;42.162;24.754;2023-03-13T12:51:35;100199.06;;;20.56;17.96
64616;BME280;51027;42.162;24.754;2023-03-13T12:59:37;100191.53;;;23.55;16.27
64616;BME280;51027;42.162;24.754;2023-03-13T13:02:15;100186.41;;;23.63;15.93
64616;BME280;51027;42.162;24.754;2023-03-13T13:04:44;100188.00;;;23.54;16.17
64616;BME280;51027;42.162;24.754;2023-03-13T13:07:28;100184.94;;;23.59;16.25
64616;BME280;51027;42.162;24.754;2023-03-13T13:10:16;100194.03;;;23.89;16.01
64616;BME280;51027;42.162;24.754;2023-03-13T13:15:47;100183.84;;;23.62;16.24
64616;BME280;51027;42.162;24.754;2023-03-13T13:18:30;100191.34;;;22.71;16.86
64616;BME280;51027;42.162;24.754;2023-03-13T13:23:41;100189.94;;;23.64;16.38
64616;BME280;51027;42.162;24.754;2023-03-13T13:28:55;100172.72;;;23.02;16.64
64616;BME280;51027;42.162;24.754;2023-03-13T13:39:52;100150.56;;;22.89;16.81
64616;BME280;51027;42.162;24.754;2023-03-13T13:45:00;100161.00;;;22.26;17.46
64616;BME280;51027;42.162;24.754;2023-03-13T13:47:28;100145.53;;;22.19;17.67
64616;BME280;51027;42.162;24.754;2023-03-13T13:49:56;100162.25;;;22.22;17.49
64616;BME280;51027;42.162;24.754;2023-03-13T13:54:56;100156.94;;;23.82;16.58
64616;BME280;51027;42.162;24.754;2023-03-13T13:57:25;100157.09;;;23.91;16.06
64616;BME280;51027;42.162;24.754;2023-03-13T13:59:58;100088.31;;;23.67;15.95
64616;BME280;51027;42.162;24.754;2023-03-13T14:02:35;100129.06;;;22.89;16.44
64616;BME280;51027;42.162;24.754;2023-03-13T14:10:14;100144.59;;;23.59;16.44
64616;BME280;51027;42.162;24.754;2023-03-13T14:12:46;100131.44;;;23.87;15.58
64616;BME280;51027;42.162;24.754;2023-03-13T14:15:18;100118.75;;;23.68;16.06
64616;BME280;51027;42.162;24.754;2023-03-13T14:17:46;100132.25;;;23.56;15.73